Time;durP1;ratioP1;P1;durP2;ratioP2;P2;SDS_P1;SDS_P2;PMS_P1;PMS_P2;Temp;Humidity;BMP_temperature;BMP_pressure;BME280_temperature;BME280_humidity;BME280_pressure;Samples;Min_cycle;Max_cycle;Signal;HPM_P1;HPM_P2
2024/01/22 00:01:28;;;;;;;5.80;2.85;;;;;;;;;;4996174;28;20503;-77
2024/01/22 00:03:55;;;;;;;4.93;2.78;;;;;;;;;;4996194;28;20050;-78
2024/01/22 00:06:22;;;;;;;4.70;2.80;;;;;;;;;;4995753;28;20057;-77
2024/01/22 00:08:50;;;;;;;6.60;3.13;;;;;;;;;;4995556;28;20060;-77
2024/01/22 00:11:16;;;;;;;6.32;2.67;;;;;;;;;;4995873;28;20404;-78
2024/01/22 00:13:43;;;;;;;5.30;3.10;;;;;;;;;;4995797;28;20054;-78
2024/01/22 00:16:12;;;;;;;4.38;2.53;;;;;;;;;;4995838;28;20061;-77
2024/01/22 00:18:39;;;;;;;4.63;2.40;;;;;;;;;;4996041;28;20054;-78
2024/01/22 00:21:06;;;;;;;5.57;2.45;;;;;;;;;;4995154;28;20058;-78
2024/01/22 00:23:33;;;;;;;6.40;2.80;;;;;;;;;;4995947;28;20062;-78
2024/01/22 00:26:01;;;;;;;6.57;2.70;;;;;;;;;;4995333;28;20408;-78
2024/01/22 00:28:28;;;;;;;7.03;3.03;;;;;;;;;;4995836;28;20061;-78
2024/01/22 00:30:54;;;;;;;4.15;2.47;;;;;;;;;;4995429;28;20054;-77
2024/01/22 00:33:21;;;;;;;6.78;2.78;;;;;;;;;;4995426;28;20530;-77
2024/01/22 00:35:48;;;;;;;4.30;2.83;;;;;;;;;;4995350;28;20050;-78
2024/01/22 00:38:15;;;;;;;4.07;2.42;;;;;;;;;;4995613;28;20054;-78
2024/01/22 00:40:42;;;;;;;4.57;2.70;;;;;;;;;;4995388;28;20415;-78
2024/01/22 00:43:10;;;;;;;6.07;2.60;;;;;;;;;;4995460;28;20412;-77
2024/01/22 00:45:38;;;;;;;4.22;2.30;;;;;;;;;;4995631;28;20050;-77
2024/01/22 00:48:05;;;;;;;4.78;2.33;;;;;;;;;;4995097;28;20058;-78
2024/01/22 00:50:32;;;;;;;3.60;2.30;;;;;;;;;;4994124;28;20412;-78
2024/01/22 00:52:59;;;;;;;4.28;2.30;;;;;;;;;;4995562;28;20181;-78
2024/01/22 00:55:26;;;;;;;4.45;2.13;;;;;;;;;;4995356;28;20050;-78
2024/01/22 00:57:52;;;;;;;4.85;2.58;;;;;;;;;;4995346;28;20057;-79
2024/01/22 01:00:21;;;;;;;4.38;2.40;;;;;;;;;;4995375;28;20065;-78
2024/01/22 01:02:49;;;;;;;5.25;2.50;;;;;;;;;;4995171;28;20058;-77
2024/01/22 01:05:16;;;;;;;3.88;2.10;;;;;;;;;;4995552;28;20058;-78
2024/01/22 01:07:43;;;;;;;4.80;2.53;;;;;;;;;;4995292;28;20054;-78
2024/01/22 01:10:10;;;;;;;4.63;2.40;;;;;;;;;;4995355;28;20050;-77
2024/01/22 01:12:37;;;;;;;11.65;2.53;;;;;;;;;;4994997;28;20065;-78
2024/01/22 01:15:04;;;;;;;4.15;2.25;;;;;;;;;;4995429;28;20058;-77
2024/01/22 01:17:32;;;;;;;5.63;2.30;;;;;;;;;;4994959;28;20054;-77
2024/01/22 01:19:59;;;;;;;4.10;2.30;;;;;;;;;;4995018;28;20058;-77
2024/01/22 01:22:26;;;;;;;5.35;2.53;;;;;;;;;;4994487;28;20062;-77
2024/01/22 01:24:53;;;;;;;4.47;2.38;;;;;;;;;;4994794;28;20058;-77
2024/01/22 01:27:19;;;;;;;6.93;2.50;;;;;;;;;;4995141;28;20519;-77
2024/01/22 01:29:46;;;;;;;3.50;2.00;;;;;;;;;;4995316;28;20059;-77
2024/01/22 01:32:13;;;;;;;5.10;2.10;;;;;;;;;;4994679;28;20062;-77
2024/01/22 01:34:41;;;;;;;4.82;2.25;;;;;;;;;;4994994;28;20065;-78
2024/01/22 01:37:08;;;;;;;4.97;2.17;;;;;;;;;;4994658;28;20069;-78
2024/01/22 01:39:35;;;;;;;5.72;2.50;;;;;;;;;;4995247;28;20484;-78
2024/01/22 01:42:01;;;;;;;4.63;2.22;;;;;;;;;;4995114;28;20065;-78
2024/01/22 01:44:42;;;;;;;6.88;2.17;;;;;;;;;;4995134;28;20050;-78
2024/01/22 01:47:09;;;;;;;4.43;2.20;;;;;;;;;;4994881;28;20066;-78
2024/01/22 01:49:36;;;;;;;4.22;2.15;;;;;;;;;;4995448;28;20054;-78
2024/01/22 01:52:04;;;;;;;4.00;2.00;;;;;;;;;;4994235;28;20050;-78
2024/01/22 01:54:31;;;;;;;5.05;2.03;;;;;;;;;;4995336;28;20491;-78
2024/01/22 01:56:58;;;;;;;4.70;2.13;;;;;;;;;;4995757;28;20110;-78
2024/01/22 01:59:25;;;;;;;3.67;2.20;;;;;;;;;;4995272;28;20415;-78
2024/01/22 02:01:51;;;;;;;3.78;2.15;;;;;;;;;;4994410;28;20419;-75
2024/01/22 02:04:18;;;;;;;4.88;2.22;;;;;;;;;;4993264;28;20054;-75
2024/01/22 02:06:45;;;;;;;4.63;2.35;;;;;;;;;;4993743;28;20053;-75
2024/01/22 02:09:14;;;;;;;5.50;2.33;;;;;;;;;;4993286;28;20055;-77
2024/01/22 02:11:40;;;;;;;4.93;2.15;;;;;;;;;;4991693;28;20058;-77
2024/01/22 02:14:07;;;;;;;5.53;2.25;;;;;;;;;;4977542;28;20069;-76
2024/01/22 02:16:34;;;;;;;4.70;2.10;;;;;;;;;;4973859;28;20055;-77
2024/01/22 02:19:01;;;;;;;5.22;2.00;;;;;;;;;;4974218;28;20477;-77
2024/01/22 02:21:28;;;;;;;3.70;1.77;;;;;;;;;;4973760;28;20067;-77
2024/01/22 02:23:56;;;;;;;3.75;2.05;;;;;;;;;;4974181;28;20058;-77
2024/01/22 02:26:23;;;;;;;2.58;1.90;;;;;;;;;;4974021;28;20501;-77
2024/01/22 02:28:50;;;;;;;3.75;2.00;;;;;;;;;;4974061;28;20472;-77
2024/01/22 02:31:16;;;;;;;3.45;1.80;;;;;;;;;;4973570;28;20050;-77
2024/01/22 02:33:43;;;;;;;3.28;1.63;;;;;;;;;;4974110;28;20054;-78
2024/01/22 02:36:10;;;;;;;4.30;1.70;;;;;;;;;;4973805;28;20057;-77
2024/01/22 02:38:37;;;;;;;2.65;1.70;;;;;;;;;;4974244;28;20055;-77
2024/01/22 02:41:06;;;;;;;4.55;1.58;;;;;;;;;;4973915;28;20062;-77
2024/01/22 02:43:34;;;;;;;2.83;1.45;;;;;;;;;;4974046;28;20485;-77
2024/01/22 02:46:01;;;;;;;3.72;1.42;;;;;;;;;;4973592;28;20054;-77
2024/01/22 02:48:28;;;;;;;4.10;1.88;;;;;;;;;;4973851;28;20484;-77
2024/01/22 02:50:54;;;;;;;2.38;1.55;;;;;;;;;;4973823;28;20062;-77
2024/01/22 02:53:21;;;;;;;2.92;1.50;;;;;;;;;;4973841;28;20415;-77
2024/01/22 02:55:48;;;;;;;4.07;1.50;;;;;;;;;;4973886;28;20435;-78
2024/01/22 02:58:16;;;;;;;3.85;1.65;;;;;;;;;;4973770;28;20058;-77
2024/01/22 03:00:45;;;;;;;3.00;1.60;;;;;;;;;;4973961;28;20416;-78
2024/01/22 03:03:12;;;;;;;2.58;1.45;;;;;;;;;;4973689;28;20059;-77
2024/01/22 03:05:40;;;;;;;3.13;1.60;;;;;;;;;;4973921;28;20404;-77
2024/01/22 03:08:07;;;;;;;2.80;1.30;;;;;;;;;;4973841;28;20066;-77
2024/01/22 03:10:34;;;;;;;2.45;1.30;;;;;;;;;;4973735;28;20063;-77
2024/01/22 03:13:01;;;;;;;2.13;1.17;;;;;;;;;;4975639;28;20506;-77
2024/01/22 03:15:29;;;;;;;3.47;1.40;;;;;;;;;;4977614;28;20055;-77
2024/01/22 03:17:56;;;;;;;3.60;1.50;;;;;;;;;;4977330;28;20062;-78
2024/01/22 03:20:23;;;;;;;2.33;1.25;;;;;;;;;;4977270;28;20488;-77
2024/01/22 03:22:50;;;;;;;2.58;1.60;;;;;;;;;;4992751;28;20058;-77
2024/01/22 03:25:16;;;;;;;2.30;1.10;;;;;;;;;;4996121;28;20054;-77
2024/01/22 03:27:43;;;;;;;4.00;1.77;;;;;;;;;;4996781;28;20468;-77
2024/01/22 03:30:11;;;;;;;3.13;1.50;;;;;;;;;;4996350;28;20425;-77
2024/01/22 03:32:39;;;;;;;4.28;1.45;;;;;;;;;;4977465;28;20054;-76
2024/01/22 03:35:06;;;;;;;3.97;1.67;;;;;;;;;;4976697;28;20084;-77
2024/01/22 03:37:33;;;;;;;2.35;1.52;;;;;;;;;;4976669;28;20050;-78
2024/01/22 03:40:00;;;;;;;3.63;1.60;;;;;;;;;;4976743;28;20500;-77
2024/01/22 03:42:27;;;;;;;2.80;1.40;;;;;;;;;;4976613;28;20139;-77
2024/01/22 03:44:54;;;;;;;3.75;1.55;;;;;;;;;;4976445;28;20051;-78
2024/01/22 03:47:21;;;;;;;2.95;1.60;;;;;;;;;;4976520;28;20055;-77
2024/01/22 03:49:49;;;;;;;3.88;1.70;;;;;;;;;;4976574;28;20063;-77
2024/01/22 03:52:15;;;;;;;2.85;1.55;;;;;;;;;;4976291;28;20423;-77
2024/01/22 03:54:42;;;;;;;2.67;1.40;;;;;;;;;;4976104;28;20063;-77
2024/01/22 03:57:10;;;;;;;3.10;1.25;;;;;;;;;;4976051;28;20066;-77
2024/01/22 03:59:38;;;;;;;3.28;1.42;;;;;;;;;;4976513;28;20082;-77
2024/01/22 04:02:05;;;;;;;2.42;1.30;;;;;;;;;;4976187;28;20050;-77
2024/01/22 04:04:32;;;;;;;2.67;1.75;;;;;;;;;;4976543;28;20058;-77
2024/01/22 04:07:00;;;;;;;2.35;1.30;;;;;;;;;;4975573;28;20051;-77
2024/01/22 04:09:27;;;;;;;4.70;1.23;;;;;;;;;;4975903;28;20059;-77
2024/01/22 04:11:54;;;;;;;3.20;1.30;;;;;;;;;;4975984;28;20066;-77
2024/01/22 04:14:20;;;;;;;2.35;1.30;;;;;;;;;;4976158;28;20492;-77
2024/01/22 04:16:47;;;;;;;4.07;1.50;;;;;;;;;;4976182;28;20050;-78
2024/01/22 04:19:14;;;;;;;3.85;1.70;;;;;;;;;;4975646;28;20054;-77
2024/01/22 04:21:45;;;;;;;2.20;1.55;;;;;;;;;;4975754;28;20058;-78
2024/01/22 04:24:13;;;;;;;3.03;1.60;;;;;;;;;;4976273;28;20054;-77
2024/01/22 04:26:40;;;;;;;6.95;2.25;;;;;;;;;;4975897;28;20062;-78
2024/01/22 04:29:06;;;;;;;6.13;2.70;;;;;;;;;;4976424;28;20047;-80
2024/01/22 04:31:33;;;;;;;9.73;2.70;;;;;;;;;;4976060;28;20058;-79
2024/01/22 04:34:00;;;;;;;4.43;2.83;;;;;;;;;;4976284;28;20500;-79
2024/01/22 04:36:28;;;;;;;3.80;2.50;;;;;;;;;;4975515;28;20050;-79
2024/01/22 04:38:54;;;;;;;5.53;2.35;;;;;;;;;;4975916;28;20117;-80
2024/01/22 04:41:22;;;;;;;5.07;2.60;;;;;;;;;;4976047;28;20066;-80
2024/01/22 04:43:49;;;;;;;9.77;3.10;;;;;;;;;;4975669;28;20380;-82
2024/01/22 04:46:16;;;;;;;12.43;2.88;;;;;;;;;;4975590;28;20059;-81
2024/01/22 04:48:43;;;;;;;7.72;3.33;;;;;;;;;;4975163;28;20404;-82
2024/01/22 04:51:10;;;;;;;7.20;2.85;;;;;;;;;;4975566;28;20059;-80
2024/01/22 04:53:37;;;;;;;6.43;2.83;;;;;;;;;;4976043;28;20059;-80
2024/01/22 04:56:04;;;;;;;11.05;2.97;;;;;;;;;;4975478;28;20487;-80
2024/01/22 04:58:32;;;;;;;5.10;2.40;;;;;;;;;;4975774;28;20051;-80
2024/01/22 05:00:59;;;;;;;6.25;2.75;;;;;;;;;;4976208;28;20054;-80
2024/01/22 05:03:25;;;;;;;4.68;2.28;;;;;;;;;;4975549;28;20054;-80
2024/01/22 05:05:52;;;;;;;5.72;2.33;;;;;;;;;;4975768;28;20062;-80
2024/01/22 05:08:19;;;;;;;4.60;2.63;;;;;;;;;;4974996;28;20051;-80
2024/01/22 05:10:46;;;;;;;4.57;2.38;;;;;;;;;;4976491;28;20057;-81
2024/01/22 05:13:13;;;;;;;3.50;2.35;;;;;;;;;;4975816;28;20058;-81
2024/01/22 05:15:41;;;;;;;3.03;2.10;;;;;;;;;;4975698;28;20491;-80
2024/01/22 05:18:08;;;;;;;6.72;2.50;;;;;;;;;;4975503;28;20407;-80
2024/01/22 05:20:35;;;;;;;2.63;1.75;;;;;;;;;;4975849;28;20516;-81
2024/01/22 05:23:02;;;;;;;3.33;2.20;;;;;;;;;;4975478;28;20059;-82
2024/01/22 05:25:28;;;;;;;2.65;1.70;;;;;;;;;;4975502;28;20061;-82
2024/01/22 05:27:55;;;;;;;2.13;1.70;;;;;;;;;;4975163;28;20051;-82
2024/01/22 05:30:23;;;;;;;4.85;1.92;;;;;;;;;;4974579;28;20054;-82
2024/01/22 05:32:51;;;;;;;3.72;2.25;;;;;;;;;;4975247;28;20058;-83
2024/01/22 05:35:18;;;;;;;3.35;2.28;;;;;;;;;;4974853;28;20062;-82
2024/01/22 05:37:48;;;;;;;2.83;1.42;;;;;;;;;;4975466;28;20477;-83
2024/01/22 05:40:16;;;;;;;3.60;2.15;;;;;;;;;;4976134;28;20062;-83
2024/01/22 05:42:43;;;;;;;2.78;1.63;;;;;;;;;;4976312;28;20393;-83
2024/01/22 05:45:10;;;;;;;3.13;1.92;;;;;;;;;;4975600;28;20054;-81
2024/01/22 05:47:37;;;;;;;2.42;1.52;;;;;;;;;;4975678;28;20503;-81
2024/01/22 05:50:07;;;;;;;4.40;1.70;;;;;;;;;;4975787;28;20054;-82
2024/01/22 05:52:33;;;;;;;;;;;;;;;;;;4976027;28;20411;-81
2024/01/22 05:55:01;;;;;;;2.55;1.77;;;;;;;;;;4976295;28;19922;-82
2024/01/22 05:57:27;;;;;;;3.35;1.77;;;;;;;;;;4975314;28;20050;-82
2024/01/22 05:59:54;;;;;;;3.83;1.60;;;;;;;;;;4975356;28;20404;-81
2024/01/22 06:02:21;;;;;;;2.45;1.63;;;;;;;;;;4976134;28;20062;-81
2024/01/22 06:04:48;;;;;;;3.45;1.60;;;;;;;;;;4975611;28;20055;-82
2024/01/22 06:07:16;;;;;;;3.10;1.60;;;;;;;;;;4975911;28;20388;-83
2024/01/22 06:09:43;;;;;;;2.80;1.60;;;;;;;;;;4975562;28;20061;-83
2024/01/22 06:12:09;;;;;;;3.33;1.50;;;;;;;;;;4975707;28;20059;-84
2024/01/22 06:14:36;;;;;;;2.63;1.55;;;;;;;;;;4975883;28;20058;-83
2024/01/22 06:17:04;;;;;;;2.22;1.70;;;;;;;;;;4975849;28;20063;-83
2024/01/22 06:19:30;;;;;;;2.05;1.40;;;;;;;;;;4976406;28;20070;-84
2024/01/22 06:21:58;;;;;;;2.05;1.38;;;;;;;;;;4975832;28;20054;-84
2024/01/22 06:24:26;;;;;;;2.40;1.70;;;;;;;;;;4976103;28;20058;-84
2024/01/22 06:26:53;;;;;;;2.65;1.33;;;;;;;;;;4976780;28;20051;-84
2024/01/22 06:29:20;;;;;;;2.55;1.50;;;;;;;;;;4977163;28;20047;-83
2024/01/22 06:31:47;;;;;;;2.20;1.60;;;;;;;;;;4982071;28;20047;-84
2024/01/22 06:34:14;;;;;;;3.45;1.90;;;;;;;;;;4995461;28;20036;-83
2024/01/22 06:36:40;;;;;;;2.67;1.60;;;;;;;;;;4994240;28;20074;-84
2024/01/22 06:39:08;;;;;;;3.80;2.00;;;;;;;;;;4994790;28;20059;-83
2024/01/22 06:41:36;;;;;;;2.28;1.50;;;;;;;;;;4994319;28;20054;-83
2024/01/22 06:44:03;;;;;;;2.90;1.60;;;;;;;;;;4988143;28;20054;-83
2024/01/22 06:46:29;;;;;;;3.13;1.60;;;;;;;;;;4975352;28;20077;-83
2024/01/22 06:48:56;;;;;;;3.25;1.70;;;;;;;;;;4977936;28;20050;-83
2024/01/22 06:51:23;;;;;;;2.30;1.33;;;;;;;;;;4978979;28;20061;-84
2024/01/22 06:53:50;;;;;;;2.30;1.50;;;;;;;;;;4979001;28;20061;-83
2024/01/22 06:56:17;;;;;;;2.15;1.40;;;;;;;;;;4978590;28;20081;-83
2024/01/22 06:58:45;;;;;;;2.00;1.35;;;;;;;;;;4978998;28;20051;-83
2024/01/22 07:01:14;;;;;;;3.78;1.50;;;;;;;;;;4978368;28;20057;-82
2024/01/22 07:03:40;;;;;;;2.63;1.20;;;;;;;;;;4979185;28;20416;-82
2024/01/22 07:06:07;;;;;;;3.25;1.30;;;;;;;;;;4978302;28;20054;-83
2024/01/22 07:08:34;;;;;;;3.17;1.23;;;;;;;;;;4978618;28;20051;-83
2024/01/22 07:11:01;;;;;;;2.72;1.40;;;;;;;;;;4978624;28;20058;-83
2024/01/22 07:13:28;;;;;;;1.55;1.00;;;;;;;;;;4978087;28;20055;-82
2024/01/22 07:15:56;;;;;;;2.03;1.20;;;;;;;;;;4978123;28;20062;-82
2024/01/22 07:18:23;;;;;;;2.78;1.60;;;;;;;;;;4978728;28;20408;-83
2024/01/22 07:20:50;;;;;;;2.70;1.40;;;;;;;;;;4977893;28;20066;-83
2024/01/22 07:23:17;;;;;;;1.80;1.20;;;;;;;;;;4977673;28;20066;-83
2024/01/22 07:25:44;;;;;;;2.15;1.40;;;;;;;;;;4977307;28;20055;-83
2024/01/22 07:28:11;;;;;;;2.20;1.40;;;;;;;;;;4977807;28;20062;-82
2024/01/22 07:30:38;;;;;;;2.10;1.52;;;;;;;;;;4977207;28;20061;-82
2024/01/22 07:33:06;;;;;;;2.40;1.50;;;;;;;;;;4977884;28;20061;-82
2024/01/22 07:35:33;;;;;;;2.65;1.33;;;;;;;;;;4977751;28;20051;-82
2024/01/22 07:38:00;;;;;;;2.13;1.40;;;;;;;;;;4977516;28;20059;-82
2024/01/22 07:40:28;;;;;;;2.60;1.50;;;;;;;;;;4977375;28;20059;-82
2024/01/22 07:42:54;;;;;;;1.85;1.33;;;;;;;;;;4977546;28;20057;-82
2024/01/22 07:45:21;;;;;;;3.08;1.20;;;;;;;;;;4977130;28;20051;-82
2024/01/22 07:47:48;;;;;;;3.22;1.48;;;;;;;;;;4977548;28;20057;-82
2024/01/22 07:50:16;;;;;;;2.03;1.10;;;;;;;;;;4977145;28;20055;-82
2024/01/22 07:52:43;;;;;;;2.17;1.33;;;;;;;;;;4977178;28;20065;-82
2024/01/22 07:55:13;;;;;;;3.42;1.55;;;;;;;;;;4977081;28;20054;-82
2024/01/22 07:57:39;;;;;;;2.00;1.08;;;;;;;;;;4976922;28;20065;-83
2024/01/22 08:00:11;;;;;;;1.85;1.15;;;;;;;;;;4977594;28;20065;-82
2024/01/22 08:02:38;;;;;;;1.73;1.10;;;;;;;;;;4976614;28;20059;-83
2024/01/22 08:05:16;;;;;;;2.97;1.30;;;;;;;;;;4976606;28;20051;-83
2024/01/22 08:07:44;;;;;;;2.05;1.00;;;;;;;;;;4976171;28;20059;-82
2024/01/22 08:10:12;;;;;;;2.65;1.10;;;;;;;;;;4976771;28;20058;-82
2024/01/22 08:12:39;;;;;;;1.52;0.85;;;;;;;;;;4976651;28;20054;-81
2024/01/22 08:17:47;;;;;;;2.08;1.33;;;;;;;;;;4975880;28;20496;-83
2024/01/22 08:20:18;;;;;;;2.70;1.25;;;;;;;;;;4976634;28;20054;-82
2024/01/22 08:22:47;;;;;;;1.85;1.10;;;;;;;;;;4991460;28;20054;-82
2024/01/22 08:25:18;;;;;;;2.75;1.20;;;;;;;;;;4995628;28;20062;-82
2024/01/22 08:27:45;;;;;;;2.22;1.13;;;;;;;;;;4995759;28;20054;-82
2024/01/22 08:30:13;;;;;;;1.88;1.00;;;;;;;;;;4995176;28;20050;-82
2024/01/22 08:32:39;;;;;;;2.72;1.42;;;;;;;;;;4976185;28;20420;-82
2024/01/22 08:35:07;;;;;;;1.38;1.02;;;;;;;;;;4975948;28;20411;-82
2024/01/22 08:37:37;;;;;;;1.67;1.20;;;;;;;;;;4976103;28;20061;-82
2024/01/22 08:40:06;;;;;;;1.50;0.90;;;;;;;;;;4975982;28;20055;-82
2024/01/22 08:42:33;;;;;;;1.70;1.10;;;;;;;;;;4975702;28;20054;-82
2024/01/22 08:45:00;;;;;;;1.67;0.80;;;;;;;;;;4975798;28;20059;-82
2024/01/22 08:47:27;;;;;;;2.47;1.30;;;;;;;;;;4976145;28;20061;-82
2024/01/22 08:49:53;;;;;;;2.78;1.10;;;;;;;;;;4974944;28;20416;-81
2024/01/22 08:52:20;;;;;;;2.80;1.10;;;;;;;;;;4975523;28;20057;-83
2024/01/22 08:54:47;;;;;;;3.35;1.20;;;;;;;;;;4975546;28;20059;-83
2024/01/22 08:57:16;;;;;;;2.35;1.00;;;;;;;;;;4975551;28;20166;-83
2024/01/22 08:59:43;;;;;;;1.25;0.73;;;;;;;;;;4975528;28;20061;-83
2024/01/22 09:02:10;;;;;;;2.03;0.75;;;;;;;;;;4975300;28;20412;-82
2024/01/22 09:04:36;;;;;;;1.17;0.70;;;;;;;;;;4975461;28;20404;-82
2024/01/22 09:07:03;;;;;;;1.67;0.85;;;;;;;;;;4975146;28;20077;-82
2024/01/22 09:09:30;;;;;;;1.95;1.10;;;;;;;;;;4974953;28;20051;-82
2024/01/22 09:11:57;;;;;;;1.77;0.90;;;;;;;;;;4974349;28;20058;-82
2024/01/22 09:14:25;;;;;;;2.08;1.00;;;;;;;;;;4974745;28;20055;-82
2024/01/22 09:16:52;;;;;;;2.72;0.80;;;;;;;;;;4975281;28;20476;-81
2024/01/22 09:19:19;;;;;;;1.45;0.98;;;;;;;;;;4974755;28;20062;-81
2024/01/22 09:21:46;;;;;;;2.92;0.80;;;;;;;;;;4974679;28;20065;-81
2024/01/22 09:24:13;;;;;;;2.55;0.88;;;;;;;;;;4974290;28;20078;-81
2024/01/22 09:26:39;;;;;;;3.08;0.80;;;;;;;;;;4974728;28;20420;-81
2024/01/22 09:29:06;;;;;;;2.53;0.77;;;;;;;;;;4974919;28;20480;-81
2024/01/22 09:31:35;;;;;;;2.72;0.98;;;;;;;;;;4974406;28;20054;-81
2024/01/22 09:34:01;;;;;;;2.50;0.80;;;;;;;;;;4975286;28;20054;-81
2024/01/22 09:36:29;;;;;;;1.70;1.13;;;;;;;;;;4975189;28;20062;-80
2024/01/22 09:38:56;;;;;;;1.70;1.00;;;;;;;;;;4974936;28;20511;-81
2024/01/22 09:41:22;;;;;;;1.90;0.90;;;;;;;;;;4974629;28;20488;-80
2024/01/22 09:43:49;;;;;;;2.03;0.80;;;;;;;;;;4974589;28;20054;-81
2024/01/22 09:46:16;;;;;;;1.98;0.80;;;;;;;;;;4974587;28;20059;-81
2024/01/22 09:48:45;;;;;;;1.65;0.70;;;;;;;;;;4975111;28;20062;-80
2024/01/22 09:51:13;;;;;;;1.83;1.00;;;;;;;;;;4974022;28;20050;-80
2024/01/22 09:53:43;;;;;;;3.53;0.90;;;;;;;;;;4974380;28;20054;-80
2024/01/22 09:56:11;;;;;;;1.65;0.80;;;;;;;;;;4974552;28;20062;-81
2024/01/22 09:58:39;;;;;;;1.50;0.80;;;;;;;;;;4974834;28;20488;-81
2024/01/22 10:01:07;;;;;;;2.55;0.90;;;;;;;;;;4974127;28;20053;-80
2024/01/22 10:03:34;;;;;;;2.22;0.90;;;;;;;;;;4974276;28;20055;-81
2024/01/22 10:06:02;;;;;;;3.65;0.80;;;;;;;;;;4974200;28;20062;-81
2024/01/22 10:08:29;;;;;;;2.70;1.05;;;;;;;;;;4973707;28;20054;-81
2024/01/22 10:10:56;;;;;;;3.00;1.10;;;;;;;;;;4974211;28;20061;-80
2024/01/22 10:13:23;;;;;;;2.67;1.15;;;;;;;;;;4974171;28;20062;-81
2024/01/22 10:15:51;;;;;;;3.75;1.27;;;;;;;;;;4974218;28;20055;-81
2024/01/22 10:18:18;;;;;;;2.50;1.08;;;;;;;;;;4974056;28;20058;-80
2024/01/22 10:20:46;;;;;;;5.53;1.27;;;;;;;;;;4973730;28;20058;-81
2024/01/22 10:23:15;;;;;;;3.03;1.20;;;;;;;;;;4973652;28;20058;-81
2024/01/22 10:25:43;;;;;;;4.68;1.42;;;;;;;;;;4973940;28;20054;-82
2024/01/22 10:28:11;;;;;;;5.82;1.70;;;;;;;;;;4974067;28;20404;-81
2024/01/22 10:30:38;;;;;;;7.22;1.50;;;;;;;;;;4973975;28;20062;-81
2024/01/22 10:33:09;;;;;;;3.83;1.15;;;;;;;;;;4974143;28;20065;-82
2024/01/22 10:35:36;;;;;;;3.67;1.55;;;;;;;;;;4974287;28;20047;-82
2024/01/22 10:38:19;;;;;;;5.13;1.58;;;;;;;;;;4974159;28;20062;-81
2024/01/22 10:40:48;;;;;;;7.55;1.85;;;;;;;;;;4974162;28;20055;-81
2024/01/22 10:43:18;;;;;;;4.80;1.30;;;;;;;;;;4974083;28;20054;-81
2024/01/22 10:45:44;;;;;;;;;;;;;;;;;;4974456;28;20062;-79
2024/01/22 10:48:11;;;;;;;6.38;1.60;;;;;;;;;;4974199;28;19922;-79
2024/01/22 10:50:38;;;;;;;6.45;1.80;;;;;;;;;;4973960;28;20058;-79
2024/01/22 10:53:06;;;;;;;4.75;1.70;;;;;;;;;;4974027;28;20054;-79
2024/01/22 10:55:33;;;;;;;6.15;1.58;;;;;;;;;;4973909;28;20501;-79
2024/01/22 10:58:08;;;;;;;5.63;1.52;;;;;;;;;;4973940;28;20055;-79
2024/01/22 11:00:40;;;;;;;6.50;1.55;;;;;;;;;;4972315;28;20066;-79
2024/01/22 11:03:10;;;;;;;4.85;1.70;;;;;;;;;;4973667;28;20059;-79
2024/01/22 11:05:37;;;;;;;;;;;;;;;;;;4974898;28;20055;-79
2024/01/22 11:08:06;;;;;;;6.07;2.05;;;;;;;;;;4974218;28;19922;-80
2024/01/22 11:10:33;;;;;;;5.65;1.60;;;;;;;;;;4973674;28;20047;-80
2024/01/22 11:13:00;;;;;;;5.47;1.92;;;;;;;;;;4973823;28;20059;-79
2024/01/22 11:15:28;;;;;;;4.55;1.80;;;;;;;;;;4972889;28;20051;-80
2024/01/22 11:17:54;;;;;;;8.43;1.88;;;;;;;;;;4973455;28;20447;-80
2024/01/22 11:20:22;;;;;;;6.47;1.88;;;;;;;;;;4973457;28;20050;-80
2024/01/22 11:22:58;;;;;;;3.53;1.40;;;;;;;;;;4988821;28;20062;-80
2024/01/22 11:25:25;;;;;;;6.07;1.50;;;;;;;;;;4993330;28;20065;-80
2024/01/22 11:28:02;;;;;;;4.70;1.40;;;;;;;;;;4992707;28;20419;-79
2024/01/22 11:30:32;;;;;;;6.47;1.98;;;;;;;;;;4990954;28;20069;-79
2024/01/22 11:32:58;;;;;;;5.40;1.70;;;;;;;;;;4973357;28;20069;-79
2024/01/22 11:35:36;;;;;;;7.10;2.00;;;;;;;;;;4976872;28;20058;-79
2024/01/22 11:38:03;;;;;;;4.93;1.40;;;;;;;;;;4977084;28;20054;-79
2024/01/22 11:40:49;;;;;;;4.53;1.40;;;;;;;;;;4976742;28;20396;-79
2024/01/22 11:43:17;;;;;;;5.30;1.45;;;;;;;;;;4977094;28;20058;-79
2024/01/22 11:45:46;;;;;;;3.03;1.30;;;;;;;;;;4976726;28;20059;-79
2024/01/22 11:48:17;;;;;;;3.20;1.10;;;;;;;;;;4976422;28;20523;-79
2024/01/22 11:50:44;;;;;;;3.55;1.20;;;;;;;;;;4977037;28;20055;-79
2024/01/22 11:53:10;;;;;;;3.90;1.40;;;;;;;;;;4976598;28;20539;-79
2024/01/22 11:55:39;;;;;;;2.95;1.10;;;;;;;;;;4976842;28;20050;-79
2024/01/22 11:58:09;;;;;;;2.65;1.00;;;;;;;;;;4976844;28;20451;-79
2024/01/22 12:00:36;;;;;;;3.65;1.02;;;;;;;;;;4976597;28;20050;-79
2024/01/22 12:03:04;;;;;;;4.22;1.20;;;;;;;;;;4976657;28;20515;-79
2024/01/22 12:05:31;;;;;;;5.22;1.13;;;;;;;;;;4976652;28;20389;-79
2024/01/22 12:07:58;;;;;;;4.43;1.20;;;;;;;;;;4976667;28;20400;-79
2024/01/22 12:10:26;;;;;;;4.28;1.23;;;;;;;;;;4976497;28;20055;-79
2024/01/22 12:12:55;;;;;;;3.33;1.00;;;;;;;;;;4976146;28;20051;-79
2024/01/22 12:15:23;;;;;;;3.90;1.45;;;;;;;;;;4976737;28;20061;-79
2024/01/22 12:17:50;;;;;;;2.63;1.10;;;;;;;;;;4975931;28;20054;-79
2024/01/22 12:20:19;;;;;;;2.78;1.10;;;;;;;;;;4976521;28;20054;-79
2024/01/22 12:22:46;;;;;;;4.10;1.15;;;;;;;;;;4975947;28;20527;-79
2024/01/22 12:25:13;;;;;;;2.25;0.95;;;;;;;;;;4976167;28;20412;-80
2024/01/22 12:27:39;;;;;;;3.15;1.13;;;;;;;;;;4975688;28;20058;-79
2024/01/22 12:30:08;;;;;;;2.45;1.02;;;;;;;;;;4976250;28;20400;-79
2024/01/22 12:32:36;;;;;;;5.53;1.17;;;;;;;;;;4976068;28;20059;-79
2024/01/22 12:35:04;;;;;;;4.20;1.25;;;;;;;;;;4976334;28;20059;-79
2024/01/22 12:37:34;;;;;;;3.58;1.42;;;;;;;;;;4976435;28;20055;-78
2024/01/22 12:40:10;;;;;;;3.70;1.30;;;;;;;;;;4976020;28;20050;-79
2024/01/22 12:42:37;;;;;;;6.53;1.85;;;;;;;;;;4975960;28;20061;-79
2024/01/22 12:45:04;;;;;;;8.65;3.00;;;;;;;;;;4974963;28;20404;-79
2024/01/22 12:47:33;;;;;;;9.07;2.35;;;;;;;;;;4976004;28;20057;-79
2024/01/22 12:50:00;;;;;;;4.45;1.70;;;;;;;;;;4975775;28;20062;-79
2024/01/22 12:52:26;;;;;;;5.03;1.70;;;;;;;;;;4975901;28;20593;-79
2024/01/22 12:54:55;;;;;;;6.93;1.75;;;;;;;;;;4975836;28;20051;-79
2024/01/22 12:57:21;;;;;;;4.35;1.90;;;;;;;;;;4975816;28;20061;-80
2024/01/22 12:59:49;;;;;;;7.53;3.15;;;;;;;;;;4976399;28;20507;-79
2024/01/22 13:02:16;;;;;;;5.47;2.08;;;;;;;;;;4976004;28;20130;-79
2024/01/22 13:04:42;;;;;;;4.75;1.60;;;;;;;;;;4975129;28;20058;-78
2024/01/22 13:07:10;;;;;;;4.60;1.48;;;;;;;;;;4975550;28;20054;-79
2024/01/22 13:09:37;;;;;;;7.05;1.90;;;;;;;;;;4975124;28;20058;-79
2024/01/22 13:12:06;;;;;;;4.22;1.77;;;;;;;;;;4975356;28;20062;-79
2024/01/22 13:14:34;;;;;;;6.78;1.30;;;;;;;;;;4975546;28;20050;-79
2024/01/22 13:17:03;;;;;;;7.30;1.52;;;;;;;;;;4975500;28;20178;-79
2024/01/22 13:19:30;;;;;;;;;;;;;;;;;;4975749;28;20062;-79
2024/01/22 13:21:58;;;;;;;12.77;3.75;;;;;;;;;;4983801;28;19922;-79
2024/01/22 13:24:25;;;;;;;16.77;6.03;;;;;;;;;;4994711;28;20058;-79
2024/01/22 13:26:52;;;;;;;13.65;4.50;;;;;;;;;;4995109;28;20054;-79
2024/01/22 13:29:20;;;;;;;18.00;4.13;;;;;;;;;;4994334;28;20058;-79
2024/01/22 13:31:47;;;;;;;13.57;3.45;;;;;;;;;;4994292;28;20050;-79
2024/01/22 13:34:14;;;;;;;12.50;3.90;;;;;;;;;;4994067;28;20062;-79
2024/01/22 13:36:41;;;;;;;16.33;4.13;;;;;;;;;;4994289;28;20050;-79
2024/01/22 13:39:08;;;;;;;15.35;4.60;;;;;;;;;;4994589;28;20054;-79
2024/01/22 13:41:35;;;;;;;16.13;4.68;;;;;;;;;;4976896;28;20053;-79
2024/01/22 13:44:05;;;;;;;14.05;4.18;;;;;;;;;;4993834;28;20055;-79
2024/01/22 13:46:33;;;;;;;11.18;3.58;;;;;;;;;;4994167;28;20057;-79
2024/01/22 13:49:01;;;;;;;12.48;3.53;;;;;;;;;;4993793;28;20061;-79
2024/01/22 13:51:28;;;;;;;7.75;2.88;;;;;;;;;;4994299;28;20054;-79
2024/01/22 13:53:54;;;;;;;12.55;3.58;;;;;;;;;;4994467;28;20525;-79
2024/01/22 13:56:21;;;;;;;7.85;2.65;;;;;;;;;;4993982;28;20494;-79
2024/01/22 13:58:49;;;;;;;11.73;3.38;;;;;;;;;;4994287;28;20057;-80
2024/01/22 14:01:16;;;;;;;12.55;3.40;;;;;;;;;;4994193;28;20069;-80
2024/01/22 14:03:44;;;;;;;9.57;3.20;;;;;;;;;;4993814;28;20054;-79
2024/01/22 14:06:11;;;;;;;15.68;3.88;;;;;;;;;;4994199;28;20054;-79
2024/01/22 14:08:38;;;;;;;11.73;3.42;;;;;;;;;;4993858;28;20173;-80
2024/01/22 14:11:06;;;;;;;12.07;3.85;;;;;;;;;;4994646;28;20061;-79
2024/01/22 14:13:32;;;;;;;10.93;3.25;;;;;;;;;;4993727;28;20061;-79
2024/01/22 14:15:59;;;;;;;9.55;3.13;;;;;;;;;;4994248;28;20050;-80
2024/01/22 14:18:26;;;;;;;7.38;3.05;;;;;;;;;;4993368;28;20061;-80
2024/01/22 14:20:55;;;;;;;9.77;3.35;;;;;;;;;;4993566;28;20073;-80
2024/01/22 14:23:22;;;;;;;13.00;3.83;;;;;;;;;;4993783;28;20050;-80
2024/01/22 14:25:49;;;;;;;10.75;3.72;;;;;;;;;;4994331;28;20057;-80
2024/01/22 14:28:15;;;;;;;10.45;4.32;;;;;;;;;;4994098;28;20054;-80
2024/01/22 14:30:42;;;;;;;15.13;4.72;;;;;;;;;;4993806;28;20054;-80
2024/01/22 14:33:09;;;;;;;15.95;5.28;;;;;;;;;;4993391;28;20053;-80
2024/01/22 14:35:36;;;;;;;13.35;4.28;;;;;;;;;;4994344;28;20059;-80
2024/01/22 14:38:04;;;;;;;11.57;3.92;;;;;;;;;;4994825;28;20480;-80
2024/01/22 14:40:31;;;;;;;15.35;4.65;;;;;;;;;;4993508;28;20499;-80
2024/01/22 14:42:58;;;;;;;17.30;4.50;;;;;;;;;;4993568;28;20057;-79
2024/01/22 14:45:25;;;;;;;19.40;5.90;;;;;;;;;;4993488;28;20054;-80
2024/01/22 14:47:54;;;;;;;19.23;5.72;;;;;;;;;;4992827;28;20366;-80